createdAt,value
2022-12-25T00:01:15.424Z,70.29
2022-12-25T00:03:42.529Z,69.46
2022-12-25T00:06:09.210Z,68.32
2022-12-25T00:08:36.967Z,67.43
2022-12-25T00:11:06.876Z,68.88
2022-12-25T00:13:33.586Z,68.35
2022-12-25T00:16:00.399Z,68.49
2022-12-25T00:18:27.532Z,67.79
2022-12-25T00:21:02.475Z,68.06
2022-12-25T00:23:30.050Z,67.54
2022-12-25T00:25:57.413Z,69.17
2022-12-25T00:28:24.842Z,71.00
2022-12-25T00:30:51.980Z,70.68
2022-12-25T00:33:18.843Z,69.87
2022-12-25T00:35:45.802Z,69.77
2022-12-25T00:38:12.400Z,69.96
2022-12-25T00:40:44.203Z,69.06
2022-12-25T00:43:11.236Z,68.17
2022-12-25T00:45:42.877Z,68.13
2022-12-25T00:48:09.523Z,68.20
2022-12-25T00:50:38.785Z,66.56
2022-12-25T00:53:05.352Z,66.20
2022-12-25T00:55:35.903Z,65.83
2022-12-25T00:58:02.518Z,66.85
2022-12-25T01:00:29.123Z,65.95
2022-12-25T01:02:55.909Z,66.77
2022-12-25T01:05:22.560Z,66.63
2022-12-25T01:07:49.190Z,65.98
2022-12-25T01:10:25.037Z,66.95
2022-12-25T01:12:52.191Z,66.41
2022-12-25T01:15:19.497Z,66.21
2022-12-25T01:17:46.173Z,66.86
2022-12-25T01:20:15.472Z,65.18
2022-12-25T01:22:42.969Z,65.37
2022-12-25T01:25:10.890Z,66.70
2022-12-25T01:27:37.785Z,66.62
2022-12-25T01:30:05.117Z,66.12
2022-12-25T01:32:31.731Z,65.36
2022-12-25T01:34:58.351Z,66.67
2022-12-25T01:37:25.297Z,67.19
2022-12-25T01:39:52.008Z,67.91
2022-12-25T01:42:20.773Z,67.13
2022-12-25T01:44:47.369Z,67.10
2022-12-25T01:47:17.061Z,68.43
2022-12-25T01:49:48.130Z,68.84
2022-12-25T01:52:23.609Z,71.06
2022-12-25T01:54:58.868Z,69.81
2022-12-25T01:57:28.991Z,67.58
2022-12-25T01:59:57.656Z,69.68
2022-12-25T02:02:24.959Z,68.12
2022-12-25T02:05:00.823Z,68.45
2022-12-25T02:07:29.755Z,67.58
2022-12-25T02:09:56.371Z,67.21
2022-12-25T02:12:26.118Z,69.92
2022-12-25T02:15:04.638Z,69.43
2022-12-25T02:17:50.606Z,68.65
2022-12-25T02:20:35.820Z,67.78
2022-12-25T02:23:28.296Z,67.30
2022-12-25T02:26:12.895Z,66.45
2022-12-25T02:28:52.335Z,66.46
2022-12-25T02:31:31.602Z,66.39
2022-12-25T02:34:19.090Z,66.62
2022-12-25T02:36:48.237Z,66.21
2022-12-25T02:39:44.187Z,65.28
2022-12-25T02:42:17.894Z,65.54
2022-12-25T02:45:06.188Z,67.61
2022-12-25T02:47:52.688Z,65.43
2022-12-25T02:50:39.862Z,65.65
2022-12-25T02:53:27.432Z,65.07
2022-12-25T02:56:14.753Z,63.64
2022-12-25T02:59:07.034Z,63.18
2022-12-25T03:01:55.693Z,64.13
2022-12-25T03:04:44.686Z,63.44
2022-12-25T03:07:23.891Z,63.23
2022-12-25T03:10:16.128Z,61.56
2022-12-25T03:13:13.864Z,61.24
2022-12-25T03:15:59.051Z,61.23
2022-12-25T03:18:28.513Z,61.14
2022-12-25T03:21:14.311Z,61.42
2022-12-25T03:24:04.085Z,62.54
2022-12-25T03:26:49.621Z,62.59
2022-12-25T03:29:36.205Z,63.21
2022-12-25T03:32:16.250Z,64.70
2022-12-25T03:35:29.215Z,64.15
2022-12-25T03:38:57.290Z,64.04
2022-12-25T03:42:14.757Z,64.21
2022-12-25T03:45:24.144Z,64.89
2022-12-25T03:48:28.939Z,64.21
2022-12-25T03:51:25.604Z,64.17
2022-12-25T03:54:14.317Z,62.81
2022-12-25T03:57:01.215Z,62.66
2022-12-25T03:59:47.031Z,63.45
2022-12-25T04:02:32.500Z,64.01
2022-12-25T04:05:17.858Z,62.86
2022-12-25T04:08:03.860Z,63.37
2022-12-25T04:11:05.741Z,63.13
2022-12-25T04:13:51.121Z,62.66
2022-12-25T04:16:36.212Z,61.87
2022-12-25T04:19:21.307Z,63.44
2022-12-25T04:22:06.369Z,62.37
2022-12-25T04:24:51.403Z,62.07
2022-12-25T04:27:36.829Z,61.48
2022-12-25T04:30:22.120Z,60.63
2022-12-25T04:33:07.068Z,61.73
2022-12-25T04:35:52.266Z,61.74
2022-12-25T04:38:21.064Z,62.51
2022-12-25T04:40:47.741Z,61.35
2022-12-25T04:43:14.409Z,60.14
2022-12-25T04:45:40.979Z,61.48
2022-12-25T04:48:07.548Z,61.72
2022-12-25T04:50:34.126Z,62.27
2022-12-25T04:53:00.718Z,61.62
2022-12-25T04:55:27.350Z,61.60
2022-12-25T04:57:53.971Z,62.94
2022-12-25T05:00:20.729Z,62.04
2022-12-25T05:02:47.396Z,61.10
2022-12-25T05:05:14.199Z,60.80
2022-12-25T05:07:40.859Z,61.70
2022-12-25T05:10:08.049Z,60.98
2022-12-25T05:12:34.659Z,62.84
2022-12-25T05:15:02.339Z,63.00
2022-12-25T05:17:28.942Z,62.36
2022-12-25T05:19:55.638Z,62.21
2022-12-25T05:22:22.194Z,60.85
2022-12-25T05:24:48.912Z,61.53
2022-12-25T05:27:16.203Z,61.54
2022-12-25T05:29:45.533Z,61.46
2022-12-25T05:32:12.698Z,61.75
2022-12-25T05:34:39.343Z,61.15
2022-12-25T05:37:06.101Z,60.95
2022-12-25T05:39:32.779Z,61.05
2022-12-25T05:41:59.629Z,60.08
2022-12-25T05:44:26.252Z,60.47
2022-12-25T05:46:52.873Z,60.60
2022-12-25T05:49:19.492Z,60.93
2022-12-25T05:51:46.165Z,60.05
2022-12-25T05:54:12.761Z,60.31
2022-12-25T05:56:39.336Z,60.56
2022-12-25T05:59:11.038Z,60.85
2022-12-25T06:01:37.766Z,60.29
2022-12-25T06:04:10.165Z,61.41
2022-12-25T06:06:38.869Z,60.73
2022-12-25T06:09:07.913Z,61.69
2022-12-25T06:11:34.495Z,60.66
2022-12-25T06:14:01.226Z,59.47
2022-12-25T06:16:30.555Z,58.77
2022-12-25T06:19:02.274Z,59.63
2022-12-25T06:21:33.839Z,59.62
2022-12-25T06:24:01.439Z,59.24
2022-12-25T06:26:28.497Z,59.32
2022-12-25T06:28:55.045Z,58.94
2022-12-25T06:31:24.502Z,59.86
2022-12-25T06:33:51.149Z,60.77
2022-12-25T06:36:20.733Z,60.81
2022-12-25T06:38:47.674Z,61.70
2022-12-25T06:41:17.627Z,60.28
2022-12-25T06:43:48.483Z,60.72
2022-12-25T06:46:15.151Z,61.57
2022-12-25T06:48:47.954Z,61.02
2022-12-25T06:51:15.904Z,60.67
2022-12-25T06:53:42.566Z,60.68
2022-12-25T06:56:15.577Z,60.47
2022-12-25T06:58:44.061Z,61.22
2022-12-25T07:01:15.960Z,62.04
2022-12-25T07:03:45.209Z,60.88
2022-12-25T07:06:11.946Z,62.05
2022-12-25T07:08:38.748Z,62.48
2022-12-25T07:11:06.674Z,61.54
2022-12-25T07:13:42.516Z,61.49
2022-12-25T07:16:11.629Z,61.89
2022-12-25T07:18:46.282Z,61.82
2022-12-25T07:21:45.713Z,62.53
2022-12-25T07:24:20.744Z,60.96
2022-12-25T07:26:47.757Z,61.08
2022-12-25T07:29:17.334Z,60.13
2022-12-25T07:31:44.282Z,61.29
2022-12-25T07:34:10.934Z,61.03
2022-12-25T07:36:37.614Z,59.96
2022-12-25T07:39:04.486Z,60.85
2022-12-25T07:41:31.201Z,60.54
2022-12-25T07:43:57.896Z,62.38
2022-12-25T07:46:24.699Z,62.91
2022-12-25T07:48:51.871Z,61.69
2022-12-25T07:51:18.506Z,59.85
2022-12-25T07:53:54.514Z,60.36
2022-12-25T07:56:22.164Z,59.50
2022-12-25T07:58:49.176Z,59.20
2022-12-25T08:01:27.095Z,59.24
2022-12-25T08:04:01.705Z,58.18
2022-12-25T08:06:34.102Z,59.09
2022-12-25T08:09:07.671Z,60.20
2022-12-25T08:11:34.339Z,60.16
2022-12-25T08:14:04.708Z,61.43
2022-12-25T08:16:32.068Z,61.11
2022-12-25T08:19:03.402Z,60.62
2022-12-25T08:21:33.499Z,60.06
2022-12-25T08:24:03.326Z,59.53
2022-12-25T08:26:34.291Z,59.19
2022-12-25T08:29:06.743Z,59.71
2022-12-25T08:31:46.144Z,59.41
2022-12-25T08:34:19.055Z,60.01
2022-12-25T08:36:47.571Z,58.87
2022-12-25T08:39:14.271Z,58.26
2022-12-25T08:41:44.079Z,58.96
2022-12-25T08:44:15.577Z,57.81
2022-12-25T08:46:45.840Z,58.20
2022-12-25T08:49:12.748Z,58.09
2022-12-25T08:51:42.483Z,58.90
2022-12-25T08:54:12.204Z,58.06
2022-12-25T08:57:07.931Z,57.54
2022-12-25T08:59:34.711Z,56.75
2022-12-25T09:02:01.403Z,56.81
2022-12-25T09:04:36.170Z,56.78
2022-12-25T09:07:02.818Z,57.41
2022-12-25T09:09:29.498Z,56.45
2022-12-25T09:11:56.194Z,56.70
2022-12-25T09:14:22.839Z,55.75
2022-12-25T09:16:55.270Z,54.17
2022-12-25T09:19:22.185Z,54.66
2022-12-25T09:21:49.054Z,54.88
2022-12-25T09:24:15.671Z,55.30
2022-12-25T09:26:42.266Z,55.79
2022-12-25T09:29:08.833Z,55.49
2022-12-25T09:31:37.941Z,54.45
2022-12-25T09:34:04.591Z,53.64
2022-12-25T09:36:31.203Z,53.84
2022-12-25T09:38:57.820Z,53.89
2022-12-25T09:41:33.891Z,53.76
2022-12-25T09:44:06.271Z,54.13
2022-12-25T09:46:42.311Z,54.25
2022-12-25T09:49:36.280Z,53.66
2022-12-25T09:52:08.330Z,55.63
2022-12-25T09:54:44.354Z,53.93
2022-12-25T09:57:12.924Z,53.71
2022-12-25T09:59:41.929Z,53.74
2022-12-25T10:02:42.139Z,53.62
2022-12-25T10:05:30.228Z,53.26
2022-12-25T10:08:15.491Z,53.32
2022-12-25T10:10:59.984Z,52.16
2022-12-25T10:13:34.041Z,53.64
2022-12-25T10:16:25.359Z,53.30
2022-12-25T10:19:18.472Z,53.37
2022-12-25T10:21:46.252Z,52.96
2022-12-25T10:24:54.677Z,53.77
2022-12-25T10:27:34.329Z,54.73
2022-12-25T10:30:01.908Z,54.01
2022-12-25T10:32:28.616Z,54.21
2022-12-25T10:34:55.547Z,54.06
2022-12-25T10:37:22.181Z,53.48
2022-12-25T10:39:48.820Z,52.12
2022-12-25T10:42:40.878Z,52.66
2022-12-25T10:45:09.391Z,51.90
2022-12-25T10:47:41.992Z,52.15
2022-12-25T10:50:23.100Z,53.85
2022-12-25T10:52:58.636Z,54.25
2022-12-25T10:55:29.117Z,53.01
2022-12-25T10:57:57.804Z,52.20
2022-12-25T11:00:32.670Z,52.96
2022-12-25T11:02:59.923Z,53.16
2022-12-25T11:05:33.036Z,53.31
2022-12-25T11:08:01.858Z,52.80
2022-12-25T11:10:31.052Z,53.07
2022-12-25T11:13:04.437Z,51.94
2022-12-25T11:15:40.170Z,52.51
2022-12-25T11:18:27.126Z,53.39
2022-12-25T11:21:02.288Z,53.76
2022-12-25T11:23:31.209Z,53.89
2022-12-25T11:26:00.553Z,53.39
2022-12-25T11:28:28.704Z,53.77
2022-12-25T11:31:07.753Z,53.21
2022-12-25T11:33:56.304Z,53.34
2022-12-25T11:36:28.785Z,53.44
2022-12-25T11:38:56.240Z,53.66
2022-12-25T11:41:28.613Z,52.39
2022-12-25T11:44:05.046Z,52.98
2022-12-25T11:46:45.674Z,53.62
2022-12-25T11:49:18.772Z,53.10
2022-12-25T11:51:53.754Z,53.20
2022-12-25T11:54:29.701Z,53.61
2022-12-25T11:57:03.151Z,52.52
2022-12-25T11:59:44.981Z,51.72
2022-12-25T12:02:40.012Z,52.12
2022-12-25T12:05:15.117Z,51.03
2022-12-25T12:07:56.668Z,52.33
2022-12-25T12:10:48.228Z,51.22
2022-12-25T12:13:40.626Z,51.50
2022-12-25T12:16:14.014Z,52.96
2022-12-25T12:18:46.570Z,52.11
2022-12-25T12:21:16.489Z,51.54
2022-12-25T12:24:02.023Z,50.78
2022-12-25T12:26:30.761Z,50.71
2022-12-25T12:29:02.239Z,50.15
2022-12-25T12:31:44.796Z,51.37
2022-12-25T12:34:24.953Z,51.90
2022-12-25T12:36:56.870Z,53.06
2022-12-25T12:39:36.645Z,52.29
2022-12-25T12:42:16.916Z,51.10
2022-12-25T12:44:44.556Z,50.91
2022-12-25T12:47:44.745Z,50.13
2022-12-25T12:50:35.238Z,51.24
2022-12-25T12:53:41.347Z,50.91
2022-12-25T12:56:12.077Z,51.37
2022-12-25T12:58:50.248Z,51.49
2022-12-25T13:01:44.608Z,50.35
2022-12-25T13:04:41.673Z,50.76
2022-12-25T13:07:32.186Z,51.07
2022-12-25T13:10:19.754Z,49.99
2022-12-25T13:12:50.201Z,50.09
2022-12-25T13:15:18.379Z,51.00
2022-12-25T13:17:46.812Z,51.17
2022-12-25T13:20:24.049Z,51.45
2022-12-25T13:22:52.935Z,50.77
2022-12-25T13:25:22.454Z,51.20
2022-12-25T13:27:56.814Z,50.75
2022-12-25T13:30:24.538Z,50.57
2022-12-25T13:32:51.524Z,51.58
2022-12-25T13:35:21.183Z,50.79
2022-12-25T13:37:48.701Z,49.97
2022-12-25T13:40:23.452Z,50.09
2022-12-25T13:42:59.052Z,50.26
2022-12-25T13:45:28.860Z,50.49
2022-12-25T13:47:56.189Z,50.25
2022-12-25T13:50:28.446Z,49.57
2022-12-25T13:52:57.296Z,49.48
2022-12-25T13:55:25.836Z,49.40
2022-12-25T13:58:01.944Z,50.54
2022-12-25T14:00:38.790Z,50.70
2022-12-25T14:03:10.159Z,50.97
2022-12-25T14:05:42.826Z,50.36
2022-12-25T14:08:22.264Z,49.97
2022-12-25T14:10:51.735Z,50.14
2022-12-25T14:13:23.735Z,49.00
2022-12-25T14:15:51.337Z,49.85
2022-12-25T14:18:21.143Z,49.69
2022-12-25T14:21:12.205Z,49.20
2022-12-25T14:23:53.724Z,49.07
2022-12-25T14:26:31.051Z,49.01
2022-12-25T14:29:18.093Z,49.11
2022-12-25T14:31:47.418Z,49.30
2022-12-25T14:34:22.038Z,49.96
2022-12-25T14:36:50.713Z,49.39
2022-12-25T14:39:36.913Z,50.15
2022-12-25T14:42:24.660Z,50.44
2022-12-25T14:45:05.222Z,50.37
2022-12-25T14:47:39.109Z,50.10
2022-12-25T14:50:30.600Z,49.91
2022-12-25T14:53:03.594Z,49.65
2022-12-25T14:55:40.299Z,49.62
2022-12-25T14:58:13.007Z,49.68
2022-12-25T15:00:40.395Z,49.91
2022-12-25T15:03:23.902Z,49.25
2022-12-25T15:06:19.174Z,49.54
2022-12-25T15:08:57.017Z,49.39
2022-12-25T15:11:23.958Z,49.76
2022-12-25T15:13:50.810Z,50.51
2022-12-25T15:16:27.206Z,50.47
2022-12-25T15:18:54.573Z,50.73
2022-12-25T15:21:29.639Z,50.88
2022-12-25T15:23:58.049Z,50.76
2022-12-25T15:26:26.096Z,51.03
2022-12-25T15:28:52.770Z,51.02
2022-12-25T15:31:23.484Z,51.16
2022-12-25T15:33:50.522Z,51.05
2022-12-25T15:36:17.197Z,51.09
2022-12-25T15:38:44.516Z,51.67
2022-12-25T15:41:37.186Z,51.26
2022-12-25T15:44:05.897Z,52.44
2022-12-25T15:46:34.114Z,51.85
2022-12-25T15:49:01.142Z,52.27
2022-12-25T15:51:27.758Z,52.08
2022-12-25T15:53:54.505Z,51.34
2022-12-25T15:56:22.289Z,51.07
2022-12-25T15:58:49.458Z,51.65
2022-12-25T16:01:20.325Z,51.90
2022-12-25T16:03:47.660Z,51.95
2022-12-25T16:06:16.820Z,51.80
2022-12-25T16:08:43.586Z,52.34
2022-12-25T16:11:10.872Z,52.44
2022-12-25T16:13:38.104Z,52.00
2022-12-25T16:16:05.368Z,52.44
2022-12-25T16:18:32.033Z,51.88
2022-12-25T16:20:59.837Z,52.71
2022-12-25T16:23:26.761Z,52.61
2022-12-25T16:25:53.383Z,52.71
2022-12-25T16:28:19.952Z,52.34
2022-12-25T16:30:46.580Z,52.29
2022-12-25T16:33:13.223Z,52.85
2022-12-25T16:35:39.908Z,52.85
2022-12-25T16:38:06.849Z,52.59
2022-12-25T16:40:34.063Z,52.43
2022-12-25T16:43:00.756Z,52.35
2022-12-25T16:45:27.632Z,52.82
2022-12-25T16:47:55.787Z,52.92
2022-12-25T16:50:22.483Z,53.05
2022-12-25T16:52:49.089Z,53.07
2022-12-25T16:55:15.712Z,51.90
2022-12-25T16:57:42.369Z,52.08
2022-12-25T17:00:09.703Z,52.31
2022-12-25T17:02:36.499Z,52.12
2022-12-25T17:05:03.343Z,53.51
2022-12-25T17:07:29.921Z,54.03
2022-12-25T17:09:57.302Z,53.80
2022-12-25T17:12:23.863Z,53.35
2022-12-25T17:14:50.899Z,53.99
2022-12-25T17:17:17.476Z,53.16
2022-12-25T17:19:44.145Z,53.04
2022-12-25T17:22:10.962Z,52.48
2022-12-25T17:24:39.950Z,52.52
2022-12-25T17:27:08.712Z,53.28
2022-12-25T17:29:41.149Z,52.74
2022-12-25T17:32:08.881Z,52.58
2022-12-25T17:34:35.823Z,53.00
2022-12-25T17:37:05.440Z,52.28
2022-12-25T17:39:32.141Z,52.55
2022-12-25T17:41:58.992Z,52.65
2022-12-25T17:44:25.976Z,53.11
2022-12-25T17:46:53.098Z,52.56
2022-12-25T17:49:21.699Z,52.56
2022-12-25T17:51:48.911Z,52.81
2022-12-25T17:54:15.548Z,52.52
2022-12-25T17:56:42.222Z,53.89
2022-12-25T17:59:18.389Z,53.11
2022-12-25T18:01:46.899Z,53.88
2022-12-25T18:04:19.905Z,53.06
2022-12-25T18:06:46.776Z,51.83
2022-12-25T18:09:13.840Z,51.90
2022-12-25T18:11:42.252Z,52.60
2022-12-25T18:14:13.248Z,52.43
2022-12-25T18:16:43.355Z,52.28
2022-12-25T18:19:11.430Z,52.61
2022-12-25T18:21:38.325Z,53.72
2022-12-25T18:24:06.354Z,53.53
2022-12-25T18:26:33.491Z,53.07
2022-12-25T18:29:00.114Z,52.26
2022-12-25T18:31:30.383Z,52.55
2022-12-25T18:33:57.848Z,51.91
2022-12-25T18:36:26.451Z,52.95
2022-12-25T18:38:55.696Z,52.09
2022-12-25T18:41:23.243Z,52.99
2022-12-25T18:43:52.497Z,53.00
2022-12-25T18:46:26.055Z,52.65
2022-12-25T18:48:54.632Z,52.98
2022-12-25T18:51:21.341Z,53.66
2022-12-25T18:53:47.998Z,53.36
2022-12-25T18:56:17.284Z,52.89
2022-12-25T18:58:44.680Z,52.55
2022-12-25T19:01:15.309Z,52.29
2022-12-25T19:03:42.091Z,52.02
2022-12-25T19:06:08.751Z,52.37
2022-12-25T19:08:35.685Z,52.06
2022-12-25T19:11:06.718Z,52.68
2022-12-25T19:13:33.322Z,52.72
2022-12-25T19:16:00.029Z,52.49
2022-12-25T19:18:26.752Z,52.75
2022-12-25T19:20:53.499Z,52.40
2022-12-25T19:23:20.118Z,52.00
2022-12-25T19:25:46.873Z,52.90
2022-12-25T19:28:13.559Z,52.45
2022-12-25T19:30:45.195Z,52.93
2022-12-25T19:33:26.414Z,53.40
2022-12-25T19:35:53.095Z,53.40
2022-12-25T19:38:20.310Z,53.01
2022-12-25T19:41:00.583Z,52.96
2022-12-25T19:43:35.811Z,52.85
2022-12-25T19:46:02.929Z,52.46
2022-12-25T19:48:32.138Z,52.17
2022-12-25T19:50:58.873Z,51.83
2022-12-25T19:53:26.601Z,52.13
2022-12-25T19:55:54.156Z,52.41
2022-12-25T19:58:23.887Z,51.81
2022-12-25T20:01:01.534Z,51.76
2022-12-25T20:03:28.499Z,52.08
2022-12-25T20:05:55.979Z,51.72
2022-12-25T20:08:22.883Z,51.30
2022-12-25T20:10:54.864Z,51.68
2022-12-25T20:13:22.049Z,52.47
2022-12-25T20:15:49.153Z,53.09
2022-12-25T20:18:32.663Z,52.70
2022-12-25T20:21:06.649Z,52.51
2022-12-25T20:23:33.898Z,52.03
2022-12-25T20:26:06.891Z,52.74
2022-12-25T20:28:35.879Z,52.39
2022-12-25T20:31:07.060Z,52.03
2022-12-25T20:33:34.656Z,52.46
2022-12-25T20:36:02.625Z,53.56
2022-12-25T20:38:30.270Z,54.94
2022-12-25T20:41:26.344Z,53.80
2022-12-25T20:43:50.147Z,53.41
2022-12-25T20:46:18.331Z,52.41
2022-12-25T20:48:45.746Z,51.69
2022-12-25T20:51:16.295Z,51.87
2022-12-25T20:53:43.560Z,51.99
2022-12-25T20:56:12.077Z,51.74
2022-12-25T20:58:39.295Z,51.82
2022-12-25T21:01:12.848Z,51.21
2022-12-25T21:03:40.333Z,51.39
2022-12-25T21:06:07.882Z,54.07
2022-12-25T21:08:34.959Z,58.12
2022-12-25T21:11:08.423Z,57.98
2022-12-25T21:13:38.423Z,56.37
2022-12-25T21:16:07.643Z,55.54
2022-12-25T21:18:34.331Z,54.94
2022-12-25T21:21:06.805Z,54.83
2022-12-25T21:23:35.168Z,54.67
2022-12-25T21:26:21.479Z,54.57
2022-12-25T21:28:53.448Z,54.74
2022-12-25T21:31:21.663Z,54.66
2022-12-25T21:33:55.214Z,54.68
2022-12-25T21:36:23.506Z,54.63
2022-12-25T21:38:58.730Z,54.95
2022-12-25T21:41:26.578Z,55.48
2022-12-25T21:43:53.586Z,55.47
2022-12-25T21:46:20.475Z,55.32
2022-12-25T21:48:47.758Z,55.46
2022-12-25T21:51:38.603Z,55.44
2022-12-25T21:54:06.534Z,55.78
2022-12-25T21:56:41.439Z,56.29
2022-12-25T21:59:12.284Z,56.33
2022-12-25T22:01:39.078Z,56.55
2022-12-25T22:04:08.665Z,56.66
2022-12-25T22:06:54.378Z,56.57
2022-12-25T22:09:21.667Z,57.16
2022-12-25T22:12:06.715Z,56.89
2022-12-25T22:14:56.913Z,57.86
2022-12-25T22:17:51.436Z,62.51
2022-12-25T22:20:24.204Z,61.65
2022-12-25T22:22:51.633Z,61.01
2022-12-25T22:25:18.985Z,59.97
2022-12-25T22:27:47.330Z,59.70
2022-12-25T22:30:19.226Z,59.25
2022-12-25T22:32:46.453Z,58.96
2022-12-25T22:35:14.084Z,58.85
2022-12-25T22:37:42.056Z,58.36
2022-12-25T22:40:10.933Z,58.30
2022-12-25T22:42:37.614Z,57.86
2022-12-25T22:45:05.453Z,58.33
2022-12-25T22:47:32.297Z,58.67
2022-12-25T22:49:58.847Z,59.28
2022-12-25T22:52:25.537Z,59.49
2022-12-25T22:54:52.207Z,58.89
2022-12-25T22:57:18.893Z,58.90
2022-12-25T22:59:45.475Z,58.50
2022-12-25T23:02:12.166Z,58.48
2022-12-25T23:04:38.863Z,58.87
2022-12-25T23:07:05.518Z,58.82
2022-12-25T23:09:32.150Z,58.69
2022-12-25T23:11:59.668Z,58.45
2022-12-25T23:14:39.081Z,58.78
2022-12-25T23:17:31.553Z,59.17
2022-12-25T23:20:18.497Z,59.05
2022-12-25T23:23:04.986Z,58.88
2022-12-25T23:25:50.167Z,59.22
2022-12-25T23:28:36.798Z,58.97
2022-12-25T23:31:03.783Z,59.43
2022-12-25T23:33:30.684Z,59.30
2022-12-25T23:35:57.263Z,59.08
2022-12-25T23:38:23.827Z,58.95
2022-12-25T23:40:50.426Z,59.42
2022-12-25T23:43:17.043Z,59.84
2022-12-25T23:45:49.741Z,59.61
2022-12-25T23:48:16.430Z,60.35
2022-12-25T23:50:43.047Z,60.15
2022-12-25T23:53:10.329Z,59.90
2022-12-25T23:55:37.023Z,59.16
2022-12-25T23:58:03.907Z,59.54
